createdAt,value
2023-02-08T00:00:59.681Z,15.32
2023-02-08T00:03:29.201Z,18.88
2023-02-08T00:05:56.821Z,21.63
2023-02-08T00:08:24.082Z,17.60
2023-02-08T00:10:51.696Z,13.43
2023-02-08T00:13:19.523Z,14.40
2023-02-08T00:15:47.670Z,17.23
2023-02-08T00:18:14.979Z,11.60
2023-02-08T00:20:43.572Z,13.75
2023-02-08T00:23:12.501Z,12.38
2023-02-08T00:25:41.425Z,13.20
2023-02-08T00:28:12.919Z,15.00
2023-02-08T00:30:41.804Z,11.65
2023-02-08T00:33:09.523Z,13.75
2023-02-08T00:35:37.325Z,13.90
2023-02-08T00:38:04.734Z,12.10
2023-02-08T00:40:32.312Z,12.05
2023-02-08T00:42:59.654Z,13.52
2023-02-08T00:45:27.279Z,14.07
2023-02-08T00:47:57.367Z,13.10
2023-02-08T00:50:25.058Z,13.80
2023-02-08T00:52:52.417Z,9.77
2023-02-08T00:55:19.969Z,13.20
2023-02-08T00:57:47.667Z,13.27
2023-02-08T01:00:15.546Z,13.75
2023-02-08T01:02:42.917Z,13.00
2023-02-08T01:05:12.113Z,11.02
2023-02-08T01:07:40.642Z,12.38
2023-02-08T01:10:12.570Z,10.98
2023-02-08T01:12:41.302Z,11.02
2023-02-08T01:15:09.486Z,12.27
2023-02-08T01:17:36.746Z,16.17
2023-02-08T01:20:04.560Z,14.10
2023-02-08T01:22:31.804Z,13.32
2023-02-08T01:25:01.321Z,12.02
2023-02-08T01:27:29.940Z,12.65
2023-02-08T01:29:57.469Z,12.52
2023-02-08T01:32:24.721Z,9.65
2023-02-08T01:34:52.255Z,14.30
2023-02-08T01:37:19.540Z,16.40
2023-02-08T01:39:48.241Z,14.05
2023-02-08T01:42:17.496Z,11.90
2023-02-08T01:45:16.023Z,11.18
2023-02-08T01:47:47.092Z,11.82
2023-02-08T01:50:18.152Z,11.80
2023-02-08T01:52:46.318Z,14.57
2023-02-08T01:55:19.667Z,12.48
2023-02-08T01:57:48.007Z,12.70
2023-02-08T02:00:24.030Z,15.63
2023-02-08T02:02:55.887Z,13.57
2023-02-08T02:05:28.287Z,13.70
2023-02-08T02:07:57.813Z,11.25
2023-02-08T02:10:35.724Z,15.57
2023-02-08T02:13:25.024Z,14.10
2023-02-08T02:15:53.483Z,17.40
2023-02-08T02:18:29.130Z,17.50
2023-02-08T02:21:06.777Z,13.15
2023-02-08T02:23:55.262Z,16.77
2023-02-08T02:26:39.374Z,14.77
2023-02-08T02:29:21.931Z,17.75
2023-02-08T02:32:21.059Z,16.65
2023-02-08T02:35:10.566Z,15.52
2023-02-08T02:37:49.335Z,17.30
2023-02-08T02:40:24.863Z,19.10
2023-02-08T02:43:20.720Z,15.57
2023-02-08T02:46:07.605Z,19.02
2023-02-08T02:48:50.299Z,18.48
2023-02-08T02:51:42.647Z,22.88
2023-02-08T02:54:41.197Z,19.33
2023-02-08T02:57:13.563Z,20.52
2023-02-08T02:59:43.053Z,18.45
2023-02-08T03:02:10.502Z,23.40
2023-02-08T03:04:37.963Z,22.85
2023-02-08T03:07:20.399Z,26.13
2023-02-08T03:10:03.245Z,22.75
2023-02-08T03:13:01.139Z,26.00
2023-02-08T03:16:22.997Z,24.60
2023-02-08T03:19:06.194Z,27.13
2023-02-08T03:21:39.819Z,24.08
2023-02-08T03:24:33.130Z,25.85
2023-02-08T03:27:22.307Z,23.08
2023-02-08T03:30:08.529Z,27.08
2023-02-08T03:32:48.097Z,24.10
2023-02-08T03:35:40.466Z,26.73
2023-02-08T03:38:14.790Z,28.38
2023-02-08T03:40:45.826Z,25.75
2023-02-08T03:43:19.351Z,26.15
2023-02-08T03:46:25.287Z,27.60
2023-02-08T03:48:59.627Z,28.52
2023-02-08T03:51:30.075Z,24.27
2023-02-08T03:54:01.274Z,28.92
2023-02-08T03:56:41.748Z,33.95
2023-02-08T03:59:15.194Z,30.10
2023-02-08T04:01:53.322Z,27.55
2023-02-08T04:04:21.813Z,30.73
2023-02-08T04:06:49.345Z,28.73
2023-02-08T04:09:16.905Z,28.17
2023-02-08T04:11:44.141Z,29.83
2023-02-08T04:14:11.726Z,33.45
2023-02-08T04:16:39.037Z,31.17
2023-02-08T04:19:06.680Z,27.95
2023-02-08T04:21:33.956Z,32.40
2023-02-08T04:24:01.752Z,31.58
2023-02-08T04:26:29.053Z,28.25
2023-02-08T04:28:56.724Z,28.38
2023-02-08T04:31:24.059Z,31.23
2023-02-08T04:33:52.017Z,27.90
2023-02-08T04:36:19.363Z,30.00
2023-02-08T04:38:46.976Z,32.55
2023-02-08T04:41:14.382Z,26.42
2023-02-08T04:43:41.927Z,28.58
2023-02-08T04:46:09.231Z,27.38
2023-02-08T04:48:37.127Z,30.83
2023-02-08T04:51:04.437Z,32.83
2023-02-08T04:53:32.070Z,30.33
2023-02-08T04:55:59.324Z,26.77
2023-02-08T04:58:27.166Z,27.25
2023-02-08T05:00:54.465Z,36.47
2023-02-08T05:03:22.031Z,28.90
2023-02-08T05:05:58.030Z,28.95
2023-02-08T05:08:26.312Z,28.70
2023-02-08T05:10:53.599Z,26.38
2023-02-08T05:13:21.137Z,26.88
2023-02-08T05:15:48.451Z,29.38
2023-02-08T05:18:16.051Z,30.63
2023-02-08T05:20:43.389Z,28.52
2023-02-08T05:23:11.624Z,26.52
2023-02-08T05:25:39.771Z,23.25
2023-02-08T05:28:07.455Z,27.25
2023-02-08T05:30:34.788Z,28.10
2023-02-08T05:33:02.376Z,27.08
2023-02-08T05:35:29.744Z,30.05
2023-02-08T05:37:57.290Z,29.33
2023-02-08T05:40:24.637Z,26.70
2023-02-08T05:42:52.292Z,22.77
2023-02-08T05:45:19.557Z,25.38
2023-02-08T05:47:50.142Z,29.05
2023-02-08T05:50:17.552Z,30.98
2023-02-08T05:52:45.078Z,25.88
2023-02-08T05:55:12.388Z,28.27
2023-02-08T05:57:40.036Z,25.90
2023-02-08T06:00:08.184Z,23.65
2023-02-08T06:02:43.670Z,23.70
2023-02-08T06:05:11.019Z,22.65
2023-02-08T06:07:38.596Z,21.90
2023-02-08T06:10:07.391Z,30.70
2023-02-08T06:12:34.980Z,25.50
2023-02-08T06:15:02.493Z,24.55
2023-02-08T06:17:30.104Z,24.20
2023-02-08T06:19:58.550Z,25.98
2023-02-08T06:22:26.085Z,20.48
2023-02-08T06:24:53.385Z,22.48
2023-02-08T06:27:21.049Z,24.65
2023-02-08T06:29:48.730Z,24.50
2023-02-08T06:32:16.371Z,21.90
2023-02-08T06:34:43.657Z,29.27
2023-02-08T06:37:11.216Z,22.95
2023-02-08T06:39:38.514Z,23.05
2023-02-08T06:42:06.090Z,25.90
2023-02-08T06:44:33.336Z,19.35
2023-02-08T06:47:00.930Z,16.65
2023-02-08T06:49:28.143Z,18.17
2023-02-08T06:51:55.720Z,18.02
2023-02-08T06:54:23.043Z,21.38
2023-02-08T06:56:50.567Z,24.52
2023-02-08T06:59:17.866Z,19.88
2023-02-08T07:01:45.341Z,20.65
2023-02-08T07:04:12.562Z,17.45
2023-02-08T07:06:40.138Z,19.75
2023-02-08T07:09:07.380Z,18.23
2023-02-08T07:11:34.899Z,19.65
2023-02-08T07:14:02.186Z,20.85
2023-02-08T07:16:29.937Z,16.10
2023-02-08T07:18:57.309Z,18.50
2023-02-08T07:21:24.873Z,18.30
2023-02-08T07:23:52.103Z,18.13
2023-02-08T07:26:19.663Z,18.15
2023-02-08T07:28:46.986Z,17.98
2023-02-08T07:31:16.370Z,18.20
2023-02-08T07:33:44.723Z,16.77
2023-02-08T07:36:12.334Z,16.60
2023-02-08T07:38:39.873Z,17.08
2023-02-08T07:41:12.678Z,16.58
2023-02-08T07:43:41.329Z,21.77
2023-02-08T07:46:20.883Z,13.95
2023-02-08T07:48:52.803Z,15.55
2023-02-08T07:51:20.493Z,17.88
2023-02-08T07:53:47.741Z,18.50
2023-02-08T07:56:15.378Z,20.73
2023-02-08T07:58:42.614Z,18.48
2023-02-08T08:01:21.309Z,20.13
2023-02-08T08:03:52.814Z,18.63
2023-02-08T08:06:22.331Z,19.20
2023-02-08T08:08:50.024Z,19.85
2023-02-08T08:11:18.774Z,17.42
2023-02-08T08:13:46.765Z,20.95
2023-02-08T08:16:14.474Z,18.17
2023-02-08T08:18:42.280Z,18.73
2023-02-08T08:21:09.660Z,16.55
2023-02-08T08:23:37.387Z,18.88
2023-02-08T08:26:15.884Z,20.55
2023-02-08T08:28:43.819Z,23.45
2023-02-08T08:31:20.230Z,20.20
2023-02-08T08:33:48.821Z,18.13
2023-02-08T08:36:16.596Z,22.10
2023-02-08T08:38:44.371Z,18.75
2023-02-08T08:41:14.986Z,19.27
2023-02-08T08:43:42.953Z,12.85
2023-02-08T08:46:10.808Z,20.73
2023-02-08T08:48:39.000Z,18.00
2023-02-08T08:51:07.104Z,19.90
2023-02-08T08:53:37.088Z,23.05
2023-02-08T08:56:05.147Z,22.42
2023-02-08T08:58:33.163Z,23.15
2023-02-08T09:01:00.901Z,22.52
2023-02-08T09:03:29.145Z,21.67
2023-02-08T09:05:56.745Z,23.90
2023-02-08T09:08:24.454Z,21.52
2023-02-08T09:10:51.730Z,27.85
2023-02-08T09:13:20.117Z,24.65
2023-02-08T09:15:48.793Z,27.70
2023-02-08T09:18:17.021Z,26.98
2023-02-08T09:20:45.008Z,27.48
2023-02-08T09:23:14.605Z,30.60
2023-02-08T09:25:41.909Z,23.70
2023-02-08T09:28:09.486Z,27.88
2023-02-08T09:30:36.765Z,25.52
2023-02-08T09:33:04.328Z,26.95
2023-02-08T09:35:31.636Z,21.83
2023-02-08T09:38:02.482Z,21.98
2023-02-08T09:40:57.838Z,23.25
2023-02-08T09:43:41.758Z,24.45
2023-02-08T09:46:17.301Z,26.25
2023-02-08T09:48:45.936Z,24.13
2023-02-08T09:51:29.426Z,24.75
2023-02-08T09:54:18.727Z,24.70
2023-02-08T09:56:48.208Z,23.65
2023-02-08T09:59:27.596Z,24.65
2023-02-08T10:02:06.903Z,26.80
2023-02-08T10:04:59.521Z,25.15
2023-02-08T10:10:01.708Z,23.38
2023-02-08T10:13:02.869Z,23.55
2023-02-08T10:16:14.936Z,22.42
2023-02-08T10:19:10.599Z,27.30
2023-02-08T10:21:55.524Z,26.38
2023-02-08T10:24:47.875Z,27.80
2023-02-08T10:27:27.385Z,29.27
2023-02-08T10:30:22.718Z,26.17
2023-02-08T10:33:06.966Z,27.98
2023-02-08T10:35:46.563Z,29.67
2023-02-08T10:38:20.125Z,29.35
2023-02-08T10:40:52.296Z,36.03
2023-02-08T10:43:31.227Z,30.67
2023-02-08T10:46:01.688Z,27.90
2023-02-08T10:49:10.380Z,31.92
2023-02-08T10:51:37.715Z,30.65
2023-02-08T10:54:05.629Z,30.00
2023-02-08T10:56:57.631Z,27.83
2023-02-08T11:01:59.236Z,28.35
2023-02-08T11:04:27.066Z,31.75
2023-02-08T11:06:55.017Z,33.90
2023-02-08T11:09:24.143Z,27.33
2023-02-08T11:11:52.853Z,30.90
2023-02-08T11:14:45.513Z,28.75
2023-02-08T11:17:40.417Z,37.30
2023-02-08T11:20:21.462Z,32.60
2023-02-08T11:22:48.901Z,39.65
2023-02-08T11:25:33.887Z,35.60
2023-02-08T11:28:03.882Z,35.63
2023-02-08T11:30:33.514Z,35.08
2023-02-08T11:33:30.606Z,39.83
2023-02-08T11:36:05.163Z,35.33
2023-02-08T11:38:35.811Z,36.90
2023-02-08T11:41:13.689Z,40.13
2023-02-08T11:43:41.506Z,36.65
2023-02-08T11:46:10.948Z,44.65
2023-02-08T11:48:44.963Z,42.60
2023-02-08T11:51:22.989Z,44.22
2023-02-08T11:53:50.295Z,43.78
2023-02-08T11:56:24.321Z,43.15
2023-02-08T11:59:00.401Z,37.33
2023-02-08T12:01:42.054Z,38.25
2023-02-08T12:04:15.134Z,35.20
2023-02-08T12:07:00.104Z,37.50
2023-02-08T12:09:55.149Z,41.15
2023-02-08T12:12:31.344Z,35.42
2023-02-08T12:15:20.333Z,39.63
2023-02-08T12:18:25.492Z,37.05
2023-02-08T12:21:14.740Z,38.83
2023-02-08T12:24:13.530Z,35.63
2023-02-08T12:27:04.195Z,34.63
2023-02-08T12:29:54.556Z,32.22
2023-02-08T12:32:57.266Z,30.80
2023-02-08T12:35:48.309Z,31.98
2023-02-08T12:39:19.597Z,33.20
2023-02-08T12:42:06.997Z,35.38
2023-02-08T12:45:07.567Z,35.67
2023-02-08T12:47:49.259Z,34.05
2023-02-08T12:50:47.228Z,32.88
2023-02-08T12:53:25.807Z,29.10
2023-02-08T12:55:55.478Z,35.55
2023-02-08T12:58:31.264Z,32.85
2023-02-08T13:01:07.078Z,35.53
2023-02-08T13:03:44.153Z,31.77
2023-02-08T13:06:20.483Z,32.95
2023-02-08T13:08:55.504Z,32.97
2023-02-08T13:11:38.778Z,33.42
2023-02-08T13:14:34.377Z,37.92
2023-02-08T13:17:21.576Z,30.05
2023-02-08T13:20:03.818Z,27.00
2023-02-08T13:22:35.462Z,33.50
2023-02-08T13:25:08.649Z,34.00
2023-02-08T13:27:36.417Z,31.92
2023-02-08T13:30:05.496Z,33.67
2023-02-08T13:32:45.172Z,36.50
2023-02-08T13:35:15.603Z,33.03
2023-02-08T13:37:49.517Z,33.50
2023-02-08T13:40:28.117Z,36.35
2023-02-08T13:43:34.514Z,39.40
2023-02-08T13:46:04.280Z,37.70
2023-02-08T13:49:00.148Z,37.85
2023-02-08T13:51:33.881Z,36.90
2023-02-08T13:54:01.182Z,37.53
2023-02-08T13:56:42.566Z,41.95
2023-02-08T13:59:35.474Z,38.40
2023-02-08T14:02:12.353Z,41.20
2023-02-08T14:04:45.369Z,40.20
2023-02-08T14:07:39.762Z,39.50
2023-02-08T14:10:26.559Z,38.20
2023-02-08T14:13:00.585Z,46.13
2023-02-08T14:15:37.839Z,40.25
2023-02-08T14:18:22.742Z,42.83
2023-02-08T14:21:02.701Z,43.22
2023-02-08T14:23:32.565Z,41.83
2023-02-08T14:26:08.028Z,47.85
2023-02-08T14:28:44.483Z,44.58
2023-02-08T14:31:15.035Z,41.50
2023-02-08T14:34:03.115Z,44.38
2023-02-08T14:36:36.033Z,46.60
2023-02-08T14:39:29.679Z,50.15
2023-02-08T14:42:04.065Z,46.15
2023-02-08T14:44:37.963Z,45.70
2023-02-08T14:47:13.176Z,46.50
2023-02-08T14:49:45.067Z,50.30
2023-02-08T14:52:20.319Z,48.45
2023-02-08T14:54:58.627Z,48.72
2023-02-08T14:57:36.994Z,48.33
2023-02-08T15:00:19.170Z,50.55
2023-02-08T15:02:47.869Z,46.70
2023-02-08T15:05:27.141Z,47.45
2023-02-08T15:07:59.552Z,48.05
2023-02-08T15:10:30.306Z,51.53
2023-02-08T15:13:02.465Z,49.70
2023-02-08T15:15:35.304Z,52.78
2023-02-08T15:18:05.335Z,51.60
2023-02-08T15:20:35.674Z,56.97
2023-02-08T15:23:07.613Z,48.13
2023-02-08T15:25:38.795Z,56.42
2023-02-08T15:28:23.993Z,55.15
2023-02-08T15:31:01.474Z,55.85
2023-02-08T15:33:28.929Z,55.50
2023-02-08T15:36:08.306Z,57.90
2023-02-08T15:38:38.753Z,55.72
2023-02-08T15:41:12.262Z,59.33
2023-02-08T15:43:41.783Z,52.80
2023-02-08T15:46:22.652Z,60.15
2023-02-08T15:48:50.952Z,55.33
2023-02-08T15:51:23.100Z,58.25
2023-02-08T15:53:55.817Z,54.55
2023-02-08T15:56:37.523Z,61.17
2023-02-08T15:59:08.184Z,60.13
2023-02-08T16:01:36.069Z,56.75
2023-02-08T16:04:12.642Z,64.25
2023-02-08T16:06:55.767Z,62.78
2023-02-08T16:09:29.169Z,62.20
2023-02-08T16:12:00.097Z,71.28
2023-02-08T16:14:30.238Z,65.50
2023-02-08T16:16:59.304Z,67.15
2023-02-08T16:19:31.650Z,66.93
2023-02-08T16:22:25.737Z,71.90
2023-02-08T16:24:53.070Z,70.60
2023-02-08T16:27:31.600Z,67.60
2023-02-08T16:29:59.700Z,66.28
2023-02-08T16:32:31.125Z,72.28
2023-02-08T16:35:00.214Z,66.43
2023-02-08T16:37:34.216Z,70.63
2023-02-08T16:40:08.117Z,69.55
2023-02-08T16:42:39.979Z,72.18
2023-02-08T16:45:16.396Z,63.60
2023-02-08T16:47:56.921Z,69.25
2023-02-08T16:50:27.739Z,65.43
2023-02-08T16:53:01.346Z,64.57
2023-02-08T16:55:31.994Z,75.78
2023-02-08T16:58:00.268Z,67.93
2023-02-08T17:00:34.629Z,65.13
2023-02-08T17:03:02.424Z,60.92
2023-02-08T17:05:32.482Z,71.63
2023-02-08T17:08:00.352Z,63.88
2023-02-08T17:10:30.729Z,65.45
2023-02-08T17:13:17.411Z,60.35
2023-02-08T17:15:47.931Z,68.53
2023-02-08T17:18:15.828Z,70.10
2023-02-08T17:20:43.428Z,68.22
2023-02-08T17:23:11.105Z,61.80
2023-02-08T17:25:38.972Z,67.38
2023-02-08T17:28:11.698Z,62.28
2023-02-08T17:30:41.894Z,64.60
2023-02-08T17:33:18.055Z,67.35
2023-02-08T17:35:47.976Z,62.40
2023-02-08T17:38:16.149Z,66.18
2023-02-08T17:40:44.320Z,62.63
2023-02-08T17:43:13.031Z,61.33
2023-02-08T17:45:42.420Z,66.80
2023-02-08T17:48:10.533Z,58.35
2023-02-08T17:50:40.607Z,64.10
2023-02-08T17:53:08.592Z,65.82
2023-02-08T17:55:35.821Z,59.97
2023-02-08T17:58:03.441Z,63.28
2023-02-08T18:00:30.691Z,68.38
2023-02-08T18:03:00.953Z,70.75
2023-02-08T18:05:30.155Z,70.00
2023-02-08T18:07:57.725Z,72.57
2023-02-08T18:10:25.769Z,66.85
2023-02-08T18:12:53.489Z,68.57
2023-02-08T18:15:22.351Z,67.22
2023-02-08T18:17:52.889Z,69.38
2023-02-08T18:20:20.492Z,70.03
2023-02-08T18:22:48.234Z,76.80
2023-02-08T18:25:16.254Z,75.53
2023-02-08T18:27:43.792Z,78.43
2023-02-08T18:30:12.371Z,78.55
2023-02-08T18:32:40.374Z,82.50
2023-02-08T18:35:08.910Z,83.45
2023-02-08T18:37:37.488Z,87.72
2023-02-08T18:40:06.858Z,80.40
2023-02-08T18:42:36.051Z,75.00
2023-02-08T18:45:05.240Z,82.20
2023-02-08T18:47:35.346Z,78.32
2023-02-08T18:50:02.712Z,85.22
2023-02-08T18:52:31.670Z,76.22
2023-02-08T18:55:01.650Z,82.25
2023-02-08T18:57:29.250Z,84.75
2023-02-08T18:59:56.717Z,87.70
2023-02-08T19:02:26.423Z,84.28
2023-02-08T19:04:53.846Z,78.97
2023-02-08T19:07:21.509Z,75.03
2023-02-08T19:09:49.571Z,72.60
2023-02-08T19:12:19.060Z,71.53
2023-02-08T19:14:50.147Z,74.95
2023-02-08T19:17:18.275Z,75.88
2023-02-08T19:19:46.373Z,75.22
2023-02-08T19:22:14.036Z,73.38
2023-02-08T19:24:41.307Z,70.15
2023-02-08T19:27:08.852Z,68.82
2023-02-08T19:29:36.709Z,70.47
2023-02-08T19:32:05.043Z,71.93
2023-02-08T19:34:32.485Z,70.70
2023-02-08T19:37:00.130Z,68.85
2023-02-08T19:39:27.628Z,68.70
2023-02-08T19:41:55.488Z,58.90
2023-02-08T19:44:23.028Z,66.78
2023-02-08T19:46:53.708Z,64.95
2023-02-08T19:49:22.424Z,59.75
2023-02-08T19:51:49.953Z,60.58
2023-02-08T19:54:18.973Z,61.67
2023-02-08T19:56:53.072Z,61.53
2023-02-08T19:59:35.188Z,56.95
2023-02-08T20:02:20.124Z,52.42
2023-02-08T20:04:51.762Z,54.92
2023-02-08T20:07:19.350Z,54.47
2023-02-08T20:09:46.631Z,52.92
2023-02-08T20:12:14.156Z,51.85
2023-02-08T20:14:41.495Z,53.85
2023-02-08T20:17:09.057Z,47.20
2023-02-08T20:19:37.673Z,53.17
2023-02-08T20:22:05.790Z,45.03
2023-02-08T20:24:33.046Z,46.72
2023-02-08T20:27:00.666Z,45.42
2023-02-08T20:29:28.799Z,47.45
2023-02-08T20:31:57.484Z,45.67
2023-02-08T20:34:24.870Z,46.92
2023-02-08T20:37:06.216Z,54.80
2023-02-08T20:39:35.109Z,42.03
2023-02-08T20:42:03.066Z,44.95
2023-02-08T20:44:31.602Z,47.28
2023-02-08T20:47:00.248Z,45.58
2023-02-08T20:49:28.231Z,43.47
2023-02-08T20:51:56.001Z,44.90
2023-02-08T20:54:44.933Z,51.25
2023-02-08T20:57:18.219Z,41.40
2023-02-08T20:59:46.326Z,45.92
2023-02-08T21:02:24.099Z,42.65
2023-02-08T21:04:51.535Z,44.65
2023-02-08T21:07:19.251Z,43.80
2023-02-08T21:09:46.850Z,43.65
2023-02-08T21:12:14.541Z,40.45
2023-02-08T21:14:43.242Z,39.22
2023-02-08T21:17:13.418Z,39.38
2023-02-08T21:19:40.857Z,45.05
2023-02-08T21:22:08.513Z,39.72
2023-02-08T21:24:35.940Z,37.50
2023-02-08T21:27:03.700Z,37.33
2023-02-08T21:29:32.647Z,38.35
2023-02-08T21:32:00.601Z,41.90
2023-02-08T21:34:28.474Z,39.20
2023-02-08T21:36:57.197Z,36.63
2023-02-08T21:39:24.593Z,33.92
2023-02-08T21:41:52.849Z,33.45
2023-02-08T21:44:20.289Z,32.60
2023-02-08T21:46:47.954Z,30.00
2023-02-08T21:49:33.905Z,31.92
2023-02-08T21:52:21.152Z,36.10
2023-02-08T21:54:53.566Z,32.70
2023-02-08T21:57:24.332Z,35.72
2023-02-08T21:59:54.301Z,31.17
2023-02-08T22:02:25.987Z,32.00
2023-02-08T22:04:59.185Z,36.33
2023-02-08T22:07:28.042Z,36.13
2023-02-08T22:09:56.206Z,39.22
2023-02-08T22:12:23.869Z,34.38
2023-02-08T22:14:51.326Z,34.03
2023-02-08T22:17:19.362Z,34.83
2023-02-08T22:19:46.616Z,32.58
2023-02-08T22:22:14.136Z,35.80
2023-02-08T22:24:41.543Z,33.65
2023-02-08T22:27:09.706Z,30.98
2023-02-08T22:29:37.029Z,32.35
2023-02-08T22:32:05.733Z,30.80
2023-02-08T22:34:33.348Z,37.00
2023-02-08T22:37:03.848Z,36.20
2023-02-08T22:39:34.230Z,35.60
2023-02-08T22:42:08.573Z,30.05
2023-02-08T22:44:36.893Z,37.40
2023-02-08T22:47:06.759Z,37.55
2023-02-08T22:49:35.097Z,37.55
2023-02-08T22:52:03.858Z,33.80
2023-02-08T22:54:31.624Z,39.90
2023-02-08T22:56:59.288Z,39.30
2023-02-08T22:59:26.587Z,42.53
2023-02-08T23:01:54.268Z,43.47
2023-02-08T23:04:21.586Z,41.03
2023-02-08T23:06:49.319Z,41.40
2023-02-08T23:09:17.042Z,40.03
2023-02-08T23:11:44.709Z,43.47
2023-02-08T23:14:12.062Z,47.38
2023-02-08T23:16:39.808Z,43.78
2023-02-08T23:19:07.108Z,46.72
2023-02-08T23:21:34.628Z,44.97
2023-02-08T23:24:01.929Z,46.75
2023-02-08T23:26:29.551Z,42.83
2023-02-08T23:28:56.833Z,47.50
2023-02-08T23:31:24.537Z,47.85
2023-02-08T23:33:51.928Z,45.55
2023-02-08T23:36:21.892Z,45.20
2023-02-08T23:38:50.315Z,41.08
2023-02-08T23:41:21.435Z,44.50
2023-02-08T23:43:50.563Z,41.45
2023-02-08T23:46:20.865Z,40.33
2023-02-08T23:48:48.762Z,48.47
2023-02-08T23:51:18.117Z,44.60
2023-02-08T23:53:46.636Z,42.65
2023-02-08T23:56:21.895Z,41.70
2023-02-08T23:58:51.303Z,44.25
